createdAt,value
2022-12-03T00:01:18.644Z,94294.38
2022-12-03T00:16:20.245Z,94305.66
2022-12-03T00:31:23.621Z,94313.88
2022-12-03T00:46:25.440Z,94317.25
2022-12-03T01:01:27.087Z,94335.38
2022-12-03T01:16:28.620Z,94346.44
2022-12-03T01:31:49.022Z,94357.81
2022-12-03T01:46:52.109Z,94356.22
2022-12-03T02:01:53.752Z,94344.94
2022-12-03T02:16:55.292Z,94346.00
2022-12-03T02:31:56.894Z,94349.28
2022-12-03T02:46:58.464Z,94350.75
2022-12-03T03:02:01.317Z,94346.34
2022-12-03T03:17:03.379Z,94341.78
2022-12-03T03:32:05.150Z,94324.22
2022-12-03T03:47:06.912Z,94344.03
2022-12-03T04:02:16.652Z,94342.38
2022-12-03T04:17:18.098Z,94370.19
2022-12-03T04:32:38.350Z,94373.72
2022-12-03T04:47:40.216Z,94379.38
2022-12-03T05:02:41.743Z,94383.47
2022-12-03T05:17:43.279Z,94378.13
2022-12-03T05:32:44.779Z,94388.56
2022-12-03T05:47:46.282Z,94399.13
2022-12-03T06:02:47.993Z,94408.81
2022-12-03T06:17:50.068Z,94421.50
2022-12-03T06:32:51.617Z,94438.31
2022-12-03T06:47:53.136Z,94431.84
2022-12-03T07:02:55.160Z,94432.03
2022-12-03T07:17:56.680Z,94462.00
2022-12-03T07:32:58.137Z,94463.72
2022-12-03T07:47:59.601Z,94474.72
2022-12-03T08:03:01.124Z,94470.63
2022-12-03T08:18:05.397Z,94487.06
2022-12-03T08:33:14.410Z,94504.91
2022-12-03T08:48:18.705Z,94501.44
2022-12-03T09:03:20.224Z,94494.41
2022-12-03T09:18:21.706Z,94496.81
2022-12-03T09:33:23.239Z,94494.09
2022-12-03T09:48:24.739Z,94490.50
2022-12-03T10:03:30.205Z,94465.78
2022-12-03T10:18:38.349Z,94449.97
2022-12-03T10:33:44.975Z,94442.72
2022-12-03T10:49:06.417Z,94432.72
2022-12-03T11:04:15.089Z,94432.75
2022-12-03T11:19:17.881Z,94425.78
2022-12-03T11:34:22.105Z,94421.34
2022-12-03T11:49:37.843Z,94408.13
2022-12-03T12:04:42.992Z,94402.88
2022-12-03T12:19:46.427Z,94394.28
2022-12-03T12:34:51.175Z,94390.88
2022-12-03T12:49:52.998Z,94388.78
2022-12-03T13:04:54.789Z,94392.56
2022-12-03T13:20:05.535Z,94380.09
2022-12-03T13:35:26.780Z,94374.75
2022-12-03T13:50:28.187Z,94372.88
2022-12-03T14:05:29.763Z,94373.53
2022-12-03T14:20:31.883Z,94389.31
2022-12-03T14:35:33.408Z,94408.22
2022-12-03T14:50:34.952Z,94423.53
2022-12-03T15:05:36.515Z,94430.84
2022-12-03T15:20:39.114Z,94436.69
2022-12-03T15:35:42.601Z,94441.50
2022-12-03T15:50:44.071Z,94440.66
2022-12-03T16:05:45.558Z,94440.78
2022-12-03T16:20:47.045Z,94451.41
2022-12-03T16:35:49.070Z,94448.19
2022-12-03T16:50:50.663Z,94455.75
2022-12-03T17:05:52.209Z,94468.38
2022-12-03T17:20:53.746Z,94473.03
2022-12-03T17:35:55.240Z,94470.66
2022-12-03T17:50:58.210Z,94472.25
2022-12-03T18:05:59.764Z,94475.91
2022-12-03T18:21:02.252Z,94482.31
2022-12-03T18:36:04.882Z,94477.31
2022-12-03T18:51:16.584Z,94487.13
2022-12-03T19:06:20.412Z,94493.94
2022-12-03T19:21:22.130Z,94498.13
2022-12-03T19:36:25.625Z,94498.06
2022-12-03T19:51:35.927Z,94498.25
2022-12-03T20:06:39.160Z,94503.13
2022-12-03T20:21:41.739Z,94498.78
2022-12-03T20:36:44.225Z,94507.56
2022-12-03T20:51:45.841Z,94513.50
2022-12-03T21:06:47.381Z,94506.28
2022-12-03T21:21:49.117Z,94517.41
2022-12-03T21:36:50.674Z,94516.25
2022-12-03T21:51:52.370Z,94515.97
2022-12-03T22:16:09.026Z,94509.75
2022-12-03T22:31:11.084Z,94509.13
2022-12-03T22:46:13.351Z,94494.22
2022-12-03T23:01:22.517Z,94491.75
2022-12-03T23:16:26.248Z,94488.69
2022-12-03T23:31:29.693Z,94484.84
2022-12-03T23:46:31.352Z,94477.06
